sensor_id;sensor_type;location;lat;lon;timestamp;pressure;altitude;pressure_sealevel;temperature
38114;BMP180;23926;53.222;6.354;2023-07-13T00:01:03;101101.00;;;20.60
38114;BMP180;23926;53.222;6.354;2023-07-13T00:03:29;101095.00;;;20.60
38114;BMP180;23926;53.222;6.354;2023-07-13T00:06:00;101108.00;;;20.70
38114;BMP180;23926;53.222;6.354;2023-07-13T00:08:26;101114.00;;;20.80
38114;BMP180;23926;53.222;6.354;2023-07-13T00:10:52;101106.00;;;20.80
38114;BMP180;23926;53.222;6.354;2023-07-13T00:13:20;101110.00;;;20.80
38114;BMP180;23926;53.222;6.354;2023-07-13T00:15:45;101101.00;;;20.90
38114;BMP180;23926;53.222;6.354;2023-07-13T00:18:11;101107.00;;;20.90
38114;BMP180;23926;53.222;6.354;2023-07-13T00:20:37;101105.00;;;20.90
38114;BMP180;23926;53.222;6.354;2023-07-13T00:23:02;101101.00;;;20.90
38114;BMP180;23926;53.222;6.354;2023-07-13T00:25:28;101101.00;;;20.90
38114;BMP180;23926;53.222;6.354;2023-07-13T00:27:54;101110.00;;;20.80
38114;BMP180;23926;53.222;6.354;2023-07-13T00:30:20;101119.00;;;20.80
38114;BMP180;23926;53.222;6.354;2023-07-13T00:32:46;101111.00;;;20.80
38114;BMP180;23926;53.222;6.354;2023-07-13T00:35:13;101107.00;;;20.70
38114;BMP180;23926;53.222;6.354;2023-07-13T00:37:39;101121.00;;;20.60
38114;BMP180;23926;53.222;6.354;2023-07-13T00:40:06;101111.00;;;20.60
38114;BMP180;23926;53.222;6.354;2023-07-13T00:42:32;101119.00;;;20.60
38114;BMP180;23926;53.222;6.354;2023-07-13T00:47:42;101112.00;;;20.50
38114;BMP180;23926;53.222;6.354;2023-07-13T00:50:10;101116.00;;;20.50
38114;BMP180;23926;53.222;6.354;2023-07-13T00:52:41;101111.00;;;20.50
38114;BMP180;23926;53.222;6.354;2023-07-13T00:55:09;101111.00;;;20.40
38114;BMP180;23926;53.222;6.354;2023-07-13T00:57:36;101113.00;;;20.40
38114;BMP180;23926;53.222;6.354;2023-07-13T01:00:04;101094.00;;;20.40
38114;BMP180;23926;53.222;6.354;2023-07-13T01:02:32;101120.00;;;20.40
38114;BMP180;23926;53.222;6.354;2023-07-13T01:04:58;101117.00;;;20.40
38114;BMP180;23926;53.222;6.354;2023-07-13T01:07:24;101119.00;;;20.40
38114;BMP180;23926;53.222;6.354;2023-07-13T01:09:50;101122.00;;;20.40
38114;BMP180;23926;53.222;6.354;2023-07-13T01:12:15;101114.00;;;20.40
38114;BMP180;23926;53.222;6.354;2023-07-13T01:14:41;101114.00;;;20.50
38114;BMP180;23926;53.222;6.354;2023-07-13T01:17:10;101122.00;;;20.50
38114;BMP180;23926;53.222;6.354;2023-07-13T01:19:41;101118.00;;;20.50
38114;BMP180;23926;53.222;6.354;2023-07-13T01:22:14;101119.00;;;20.50
38114;BMP180;23926;53.222;6.354;2023-07-13T01:24:41;101118.00;;;20.50
38114;BMP180;23926;53.222;6.354;2023-07-13T01:27:09;101108.00;;;20.50
38114;BMP180;23926;53.222;6.354;2023-07-13T01:29:37;101117.00;;;20.50
38114;BMP180;23926;53.222;6.354;2023-07-13T01:32:08;101116.00;;;20.40
38114;BMP180;23926;53.222;6.354;2023-07-13T01:34:34;101114.00;;;20.40
38114;BMP180;23926;53.222;6.354;2023-07-13T01:36:59;101117.00;;;20.40
38114;BMP180;23926;53.222;6.354;2023-07-13T01:39:25;101122.00;;;20.40
38114;BMP180;23926;53.222;6.354;2023-07-13T01:41:50;101118.00;;;20.30
38114;BMP180;23926;53.222;6.354;2023-07-13T01:44:16;101121.00;;;20.30
38114;BMP180;23926;53.222;6.354;2023-07-13T01:46:41;101125.00;;;20.30
38114;BMP180;23926;53.222;6.354;2023-07-13T01:49:06;101124.00;;;20.30
38114;BMP180;23926;53.222;6.354;2023-07-13T01:51:32;101129.00;;;20.40
38114;BMP180;23926;53.222;6.354;2023-07-13T01:53:58;101129.00;;;20.40
38114;BMP180;23926;53.222;6.354;2023-07-13T01:56:23;101128.00;;;20.50
38114;BMP180;23926;53.222;6.354;2023-07-13T01:58:49;101122.00;;;20.50
38114;BMP180;23926;53.222;6.354;2023-07-13T02:01:14;101108.00;;;20.40
38114;BMP180;23926;53.222;6.354;2023-07-13T02:03:40;101120.00;;;20.40
38114;BMP180;23926;53.222;6.354;2023-07-13T02:06:05;101122.00;;;20.40
38114;BMP180;23926;53.222;6.354;2023-07-13T02:08:32;101129.00;;;20.30
38114;BMP180;23926;53.222;6.354;2023-07-13T02:10:58;101125.00;;;20.30
38114;BMP180;23926;53.222;6.354;2023-07-13T02:13:24;101118.00;;;20.20
38114;BMP180;23926;53.222;6.354;2023-07-13T02:15:51;101116.00;;;20.20
38114;BMP180;23926;53.222;6.354;2023-07-13T02:18:16;101126.00;;;20.10
38114;BMP180;23926;53.222;6.354;2023-07-13T02:20:42;101121.00;;;20.10
38114;BMP180;23926;53.222;6.354;2023-07-13T02:23:08;101121.00;;;20.10
38114;BMP180;23926;53.222;6.354;2023-07-13T02:25:33;101113.00;;;20.10
38114;BMP180;23926;53.222;6.354;2023-07-13T02:27:59;101112.00;;;20.20
38114;BMP180;23926;53.222;6.354;2023-07-13T02:30:24;101109.00;;;20.20
38114;BMP180;23926;53.222;6.354;2023-07-13T02:32:50;101113.00;;;20.20
38114;BMP180;23926;53.222;6.354;2023-07-13T02:35:16;101110.00;;;20.20
38114;BMP180;23926;53.222;6.354;2023-07-13T02:37:41;101121.00;;;20.20
38114;BMP180;23926;53.222;6.354;2023-07-13T02:40:07;101116.00;;;20.10
38114;BMP180;23926;53.222;6.354;2023-07-13T02:42:34;101116.00;;;20.10
38114;BMP180;23926;53.222;6.354;2023-07-13T02:44:59;101114.00;;;20.10
38114;BMP180;23926;53.222;6.354;2023-07-13T02:47:25;101115.00;;;20.00
38114;BMP180;23926;53.222;6.354;2023-07-13T02:49:52;101109.00;;;19.90
38114;BMP180;23926;53.222;6.354;2023-07-13T02:52:17;101119.00;;;19.90
38114;BMP180;23926;53.222;6.354;2023-07-13T02:54:43;101113.00;;;19.80
38114;BMP180;23926;53.222;6.354;2023-07-13T02:57:08;101119.00;;;19.70
38114;BMP180;23926;53.222;6.354;2023-07-13T02:59:34;101116.00;;;19.60
38114;BMP180;23926;53.222;6.354;2023-07-13T03:02:01;101112.00;;;19.50
38114;BMP180;23926;53.222;6.354;2023-07-13T03:04:27;101117.00;;;19.50
38114;BMP180;23926;53.222;6.354;2023-07-13T03:06:52;101117.00;;;19.40
38114;BMP180;23926;53.222;6.354;2023-07-13T03:09:18;101123.00;;;19.30
38114;BMP180;23926;53.222;6.354;2023-07-13T03:11:43;101128.00;;;19.20
38114;BMP180;23926;53.222;6.354;2023-07-13T03:14:09;101133.00;;;19.20
38114;BMP180;23926;53.222;6.354;2023-07-13T03:16:34;101137.00;;;19.20
38114;BMP180;23926;53.222;6.354;2023-07-13T03:19:00;101128.00;;;19.20
38114;BMP180;23926;53.222;6.354;2023-07-13T03:21:25;101130.00;;;19.30
38114;BMP180;23926;53.222;6.354;2023-07-13T03:23:51;101121.00;;;19.40
38114;BMP180;23926;53.222;6.354;2023-07-13T03:26:19;101128.00;;;19.50
38114;BMP180;23926;53.222;6.354;2023-07-13T03:28:46;101137.00;;;19.60
38114;BMP180;23926;53.222;6.354;2023-07-13T03:31:17;101141.00;;;19.70
38114;BMP180;23926;53.222;6.354;2023-07-13T03:33:43;101143.00;;;19.80
38114;BMP180;23926;53.222;6.354;2023-07-13T03:36:17;101142.00;;;19.90
38114;BMP180;23926;53.222;6.354;2023-07-13T03:38:48;101140.00;;;19.80
38114;BMP180;23926;53.222;6.354;2023-07-13T03:41:15;101139.00;;;19.80
38114;BMP180;23926;53.222;6.354;2023-07-13T03:43:40;101142.00;;;19.80
38114;BMP180;23926;53.222;6.354;2023-07-13T03:46:06;101144.00;;;19.70
38114;BMP180;23926;53.222;6.354;2023-07-13T03:48:32;101136.00;;;19.70
38114;BMP180;23926;53.222;6.354;2023-07-13T03:50:57;101139.00;;;19.60
38114;BMP180;23926;53.222;6.354;2023-07-13T03:53:23;101138.00;;;19.60
38114;BMP180;23926;53.222;6.354;2023-07-13T03:55:48;101140.00;;;19.50
38114;BMP180;23926;53.222;6.354;2023-07-13T03:58:35;101142.00;;;19.50
38114;BMP180;23926;53.222;6.354;2023-07-13T04:01:03;101147.00;;;19.40
38114;BMP180;23926;53.222;6.354;2023-07-13T04:03:29;101153.00;;;19.40
38114;BMP180;23926;53.222;6.354;2023-07-13T04:06:01;101153.00;;;19.30
38114;BMP180;23926;53.222;6.354;2023-07-13T04:08:28;101153.00;;;19.30
38114;BMP180;23926;53.222;6.354;2023-07-13T04:10:55;101148.00;;;19.30
38114;BMP180;23926;53.222;6.354;2023-07-13T04:13:20;101149.00;;;19.30
38114;BMP180;23926;53.222;6.354;2023-07-13T04:15:46;101148.00;;;19.30
38114;BMP180;23926;53.222;6.354;2023-07-13T04:18:11;101152.00;;;19.30
38114;BMP180;23926;53.222;6.354;2023-07-13T04:20:37;101161.00;;;19.30
38114;BMP180;23926;53.222;6.354;2023-07-13T04:23:02;101158.00;;;19.30
38114;BMP180;23926;53.222;6.354;2023-07-13T04:25:28;101158.00;;;19.40
38114;BMP180;23926;53.222;6.354;2023-07-13T04:27:53;101158.00;;;19.40
38114;BMP180;23926;53.222;6.354;2023-07-13T04:30:19;101167.00;;;19.50
38114;BMP180;23926;53.222;6.354;2023-07-13T04:32:45;101170.00;;;19.50
38114;BMP180;23926;53.222;6.354;2023-07-13T04:35:10;101172.00;;;19.60
38114;BMP180;23926;53.222;6.354;2023-07-13T04:37:36;101172.00;;;19.60
38114;BMP180;23926;53.222;6.354;2023-07-13T04:40:03;101175.00;;;19.70
38114;BMP180;23926;53.222;6.354;2023-07-13T04:42:31;101171.00;;;19.80
38114;BMP180;23926;53.222;6.354;2023-07-13T04:44:56;101175.00;;;19.80
38114;BMP180;23926;53.222;6.354;2023-07-13T04:47:22;101178.00;;;19.90
38114;BMP180;23926;53.222;6.354;2023-07-13T04:49:47;101184.00;;;20.00
38114;BMP180;23926;53.222;6.354;2023-07-13T04:52:13;101184.00;;;20.10
38114;BMP180;23926;53.222;6.354;2023-07-13T04:54:39;101195.00;;;20.10
38114;BMP180;23926;53.222;6.354;2023-07-13T04:57:05;101190.00;;;20.20
38114;BMP180;23926;53.222;6.354;2023-07-13T04:59:34;101193.00;;;20.20
38114;BMP180;23926;53.222;6.354;2023-07-13T05:01:59;101194.00;;;20.20
38114;BMP180;23926;53.222;6.354;2023-07-13T05:04:27;101194.00;;;20.30
38114;BMP180;23926;53.222;6.354;2023-07-13T05:06:52;101198.00;;;20.30
38114;BMP180;23926;53.222;6.354;2023-07-13T05:09:18;101199.00;;;20.30
38114;BMP180;23926;53.222;6.354;2023-07-13T05:11:43;101197.00;;;20.40
38114;BMP180;23926;53.222;6.354;2023-07-13T05:14:09;101197.00;;;20.40
38114;BMP180;23926;53.222;6.354;2023-07-13T05:16:35;101200.00;;;20.40
38114;BMP180;23926;53.222;6.354;2023-07-13T05:19:01;101203.00;;;20.50
38114;BMP180;23926;53.222;6.354;2023-07-13T05:21:26;101207.00;;;20.50
38114;BMP180;23926;53.222;6.354;2023-07-13T05:23:52;101203.00;;;20.60
38114;BMP180;23926;53.222;6.354;2023-07-13T05:26:17;101209.00;;;20.50
38114;BMP180;23926;53.222;6.354;2023-07-13T05:28:43;101215.00;;;20.60
38114;BMP180;23926;53.222;6.354;2023-07-13T05:31:10;101214.00;;;20.60
38114;BMP180;23926;53.222;6.354;2023-07-13T05:33:35;101215.00;;;20.60
38114;BMP180;23926;53.222;6.354;2023-07-13T05:36:01;101219.00;;;20.60
38114;BMP180;23926;53.222;6.354;2023-07-13T05:38:27;101219.00;;;20.60
38114;BMP180;23926;53.222;6.354;2023-07-13T05:40:55;101221.00;;;20.60
38114;BMP180;23926;53.222;6.354;2023-07-13T05:43:22;101212.00;;;20.50
38114;BMP180;23926;53.222;6.354;2023-07-13T05:45:48;101217.00;;;20.60
38114;BMP180;23926;53.222;6.354;2023-07-13T05:48:15;101222.00;;;20.60
38114;BMP180;23926;53.222;6.354;2023-07-13T05:50:40;101229.00;;;20.60
38114;BMP180;23926;53.222;6.354;2023-07-13T05:53:06;101224.00;;;20.70
38114;BMP180;23926;53.222;6.354;2023-07-13T05:55:32;101228.00;;;20.80
38114;BMP180;23926;53.222;6.354;2023-07-13T05:57:59;101237.00;;;20.90
38114;BMP180;23926;53.222;6.354;2023-07-13T06:00:25;101232.00;;;20.90
38114;BMP180;23926;53.222;6.354;2023-07-13T06:02:50;101227.00;;;20.90
38114;BMP180;23926;53.222;6.354;2023-07-13T06:05:16;101239.00;;;20.90
38114;BMP180;23926;53.222;6.354;2023-07-13T06:07:42;101233.00;;;21.00
38114;BMP180;23926;53.222;6.354;2023-07-13T06:10:08;101242.00;;;21.00
38114;BMP180;23926;53.222;6.354;2023-07-13T06:12:33;101243.00;;;21.10
38114;BMP180;23926;53.222;6.354;2023-07-13T06:14:59;101245.00;;;21.20
38114;BMP180;23926;53.222;6.354;2023-07-13T06:17:24;101246.00;;;21.20
38114;BMP180;23926;53.222;6.354;2023-07-13T06:19:50;101243.00;;;21.40
38114;BMP180;23926;53.222;6.354;2023-07-13T06:22:15;101253.00;;;21.50
38114;BMP180;23926;53.222;6.354;2023-07-13T06:24:41;101252.00;;;21.60
38114;BMP180;23926;53.222;6.354;2023-07-13T06:27:06;101254.00;;;21.80
38114;BMP180;23926;53.222;6.354;2023-07-13T06:29:32;101252.00;;;21.90
38114;BMP180;23926;53.222;6.354;2023-07-13T06:31:58;101248.00;;;21.90
38114;BMP180;23926;53.222;6.354;2023-07-13T06:34:24;101250.00;;;21.90
38114;BMP180;23926;53.222;6.354;2023-07-13T06:36:49;101247.00;;;22.00
38114;BMP180;23926;53.222;6.354;2023-07-13T06:39:15;101250.00;;;22.10
38114;BMP180;23926;53.222;6.354;2023-07-13T06:41:40;101259.00;;;22.20
38114;BMP180;23926;53.222;6.354;2023-07-13T06:44:06;101259.00;;;22.20
38114;BMP180;23926;53.222;6.354;2023-07-13T06:46:32;101256.00;;;22.10
38114;BMP180;23926;53.222;6.354;2023-07-13T06:48:58;101258.00;;;22.40
38114;BMP180;23926;53.222;6.354;2023-07-13T06:51:23;101266.00;;;22.70
38114;BMP180;23926;53.222;6.354;2023-07-13T06:53:49;101267.00;;;22.90
38114;BMP180;23926;53.222;6.354;2023-07-13T06:56:15;101266.00;;;23.00
38114;BMP180;23926;53.222;6.354;2023-07-13T06:58:41;101276.00;;;23.20
38114;BMP180;23926;53.222;6.354;2023-07-13T07:01:06;101273.00;;;23.20
38114;BMP180;23926;53.222;6.354;2023-07-13T07:03:32;101267.00;;;23.20
38114;BMP180;23926;53.222;6.354;2023-07-13T07:06:12;101273.00;;;23.10
38114;BMP180;23926;53.222;6.354;2023-07-13T07:08:39;101272.00;;;23.00
38114;BMP180;23926;53.222;6.354;2023-07-13T07:11:08;101278.00;;;22.70
38114;BMP180;23926;53.222;6.354;2023-07-13T07:13:33;101279.00;;;22.60
38114;BMP180;23926;53.222;6.354;2023-07-13T07:15:59;101282.00;;;22.80
38114;BMP180;23926;53.222;6.354;2023-07-13T07:18:25;101276.00;;;22.80
38114;BMP180;23926;53.222;6.354;2023-07-13T07:20:51;101285.00;;;22.80
38114;BMP180;23926;53.222;6.354;2023-07-13T07:23:17;101290.00;;;22.70
38114;BMP180;23926;53.222;6.354;2023-07-13T07:25:44;101287.00;;;22.80
38114;BMP180;23926;53.222;6.354;2023-07-13T07:28:09;101294.00;;;22.90
38114;BMP180;23926;53.222;6.354;2023-07-13T07:30:35;101301.00;;;22.90
38114;BMP180;23926;53.222;6.354;2023-07-13T07:33:00;101298.00;;;23.30
38114;BMP180;23926;53.222;6.354;2023-07-13T07:35:26;101300.00;;;23.70
38114;BMP180;23926;53.222;6.354;2023-07-13T07:37:52;101305.00;;;24.10
38114;BMP180;23926;53.222;6.354;2023-07-13T07:40:18;101300.00;;;24.10
38114;BMP180;23926;53.222;6.354;2023-07-13T07:42:44;101306.00;;;23.80
38114;BMP180;23926;53.222;6.354;2023-07-13T07:45:10;101298.00;;;23.50
38114;BMP180;23926;53.222;6.354;2023-07-13T07:47:37;101303.00;;;23.40
38114;BMP180;23926;53.222;6.354;2023-07-13T07:50:02;101312.00;;;23.20
38114;BMP180;23926;53.222;6.354;2023-07-13T07:52:28;101306.00;;;23.10
38114;BMP180;23926;53.222;6.354;2023-07-13T07:54:54;101315.00;;;23.00
38114;BMP180;23926;53.222;6.354;2023-07-13T07:57:19;101310.00;;;22.90
38114;BMP180;23926;53.222;6.354;2023-07-13T07:59:45;101313.00;;;22.90
38114;BMP180;23926;53.222;6.354;2023-07-13T08:02:11;101325.00;;;22.80
38114;BMP180;23926;53.222;6.354;2023-07-13T08:04:36;101323.00;;;23.00
38114;BMP180;23926;53.222;6.354;2023-07-13T08:07:02;101320.00;;;22.90
38114;BMP180;23926;53.222;6.354;2023-07-13T08:09:28;101314.00;;;22.90
38114;BMP180;23926;53.222;6.354;2023-07-13T08:11:54;101321.00;;;22.70
38114;BMP180;23926;53.222;6.354;2023-07-13T08:14:20;101326.00;;;22.60
38114;BMP180;23926;53.222;6.354;2023-07-13T08:16:45;101322.00;;;22.20
38114;BMP180;23926;53.222;6.354;2023-07-13T08:19:11;101320.00;;;22.00
38114;BMP180;23926;53.222;6.354;2023-07-13T08:21:37;101325.00;;;21.90
38114;BMP180;23926;53.222;6.354;2023-07-13T08:24:02;101325.00;;;21.70
38114;BMP180;23926;53.222;6.354;2023-07-13T08:26:28;101324.00;;;21.50
38114;BMP180;23926;53.222;6.354;2023-07-13T08:28:54;101330.00;;;21.40
38114;BMP180;23926;53.222;6.354;2023-07-13T08:31:19;101331.00;;;21.40
38114;BMP180;23926;53.222;6.354;2023-07-13T08:33:45;101328.00;;;21.50
38114;BMP180;23926;53.222;6.354;2023-07-13T08:36:10;101331.00;;;21.60
38114;BMP180;23926;53.222;6.354;2023-07-13T08:38:36;101328.00;;;21.80
38114;BMP180;23926;53.222;6.354;2023-07-13T08:41:10;101326.00;;;22.10
38114;BMP180;23926;53.222;6.354;2023-07-13T08:43:37;101324.00;;;22.40
38114;BMP180;23926;53.222;6.354;2023-07-13T08:46:24;101316.00;;;22.60
38114;BMP180;23926;53.222;6.354;2023-07-13T08:48:52;101312.00;;;22.90
38114;BMP180;23926;53.222;6.354;2023-07-13T08:54:08;101314.00;;;22.70
38114;BMP180;23926;53.222;6.354;2023-07-13T08:56:36;101313.00;;;22.60
38114;BMP180;23926;53.222;6.354;2023-07-13T08:59:12;101317.00;;;22.70
38114;BMP180;23926;53.222;6.354;2023-07-13T09:02:18;101320.00;;;22.60
38114;BMP180;23926;53.222;6.354;2023-07-13T09:04:50;101323.00;;;22.70
38114;BMP180;23926;53.222;6.354;2023-07-13T09:14:58;101319.00;;;24.00
38114;BMP180;23926;53.222;6.354;2023-07-13T09:17:27;101316.00;;;24.30
38114;BMP180;23926;53.222;6.354;2023-07-13T09:20:01;101315.00;;;24.40
38114;BMP180;23926;53.222;6.354;2023-07-13T09:22:31;101319.00;;;24.70
38114;BMP180;23926;53.222;6.354;2023-07-13T09:25:12;101328.00;;;24.70
38114;BMP180;23926;53.222;6.354;2023-07-13T09:27:45;101322.00;;;24.40
38114;BMP180;23926;53.222;6.354;2023-07-13T09:32:41;101325.00;;;25.10
38114;BMP180;23926;53.222;6.354;2023-07-13T09:35:12;101331.00;;;25.40
38114;BMP180;23926;53.222;6.354;2023-07-13T09:37:43;101335.00;;;25.10
38114;BMP180;23926;53.222;6.354;2023-07-13T09:40:36;101343.00;;;24.90
38114;BMP180;23926;53.222;6.354;2023-07-13T09:43:00;101340.00;;;24.80
38114;BMP180;23926;53.222;6.354;2023-07-13T09:45:28;101342.00;;;24.50
38114;BMP180;23926;53.222;6.354;2023-07-13T09:48:06;101343.00;;;24.90
38114;BMP180;23926;53.222;6.354;2023-07-13T09:50:34;101344.00;;;24.90
38114;BMP180;23926;53.222;6.354;2023-07-13T09:53:01;101349.00;;;24.80
38114;BMP180;23926;53.222;6.354;2023-07-13T09:55:36;101340.00;;;25.00
38114;BMP180;23926;53.222;6.354;2023-07-13T09:58:14;101352.00;;;25.00
38114;BMP180;23926;53.222;6.354;2023-07-13T10:00:41;101355.00;;;25.00
38114;BMP180;23926;53.222;6.354;2023-07-13T10:03:20;101360.00;;;24.80
38114;BMP180;23926;53.222;6.354;2023-07-13T10:05:49;101355.00;;;24.70
38114;BMP180;23926;53.222;6.354;2023-07-13T10:08:27;101357.00;;;24.80
38114;BMP180;23926;53.222;6.354;2023-07-13T10:11:23;101360.00;;;25.00
38114;BMP180;23926;53.222;6.354;2023-07-13T10:14:01;101367.00;;;25.20
38114;BMP180;23926;53.222;6.354;2023-07-13T10:16:34;101368.00;;;24.90
38114;BMP180;23926;53.222;6.354;2023-07-13T10:19:02;101375.00;;;24.50
38114;BMP180;23926;53.222;6.354;2023-07-13T10:21:35;101378.00;;;24.30
38114;BMP180;23926;53.222;6.354;2023-07-13T10:26:33;101385.00;;;24.10
38114;BMP180;23926;53.222;6.354;2023-07-13T10:29:06;101378.00;;;24.20
38114;BMP180;23926;53.222;6.354;2023-07-13T10:31:35;101386.00;;;24.40
38114;BMP180;23926;53.222;6.354;2023-07-13T10:34:02;101385.00;;;24.60
38114;BMP180;23926;53.222;6.354;2023-07-13T10:36:34;101386.00;;;24.80
38114;BMP180;23926;53.222;6.354;2023-07-13T10:39:04;101386.00;;;25.00
38114;BMP180;23926;53.222;6.354;2023-07-13T10:41:33;101382.00;;;25.30
38114;BMP180;23926;53.222;6.354;2023-07-13T10:44:00;101385.00;;;25.50
38114;BMP180;23926;53.222;6.354;2023-07-13T10:46:27;101386.00;;;25.60
38114;BMP180;23926;53.222;6.354;2023-07-13T10:49:04;101374.00;;;25.70
38114;BMP180;23926;53.222;6.354;2023-07-13T10:51:31;101382.00;;;25.60
38114;BMP180;23926;53.222;6.354;2023-07-13T10:56:48;101389.00;;;25.60
38114;BMP180;23926;53.222;6.354;2023-07-13T10:59:26;101399.00;;;25.10
38114;BMP180;23926;53.222;6.354;2023-07-13T11:01:57;101389.00;;;24.90
38114;BMP180;23926;53.222;6.354;2023-07-13T11:04:24;101400.00;;;25.00
38114;BMP180;23926;53.222;6.354;2023-07-13T11:06:56;101404.00;;;24.90
38114;BMP180;23926;53.222;6.354;2023-07-13T11:09:41;101400.00;;;24.80
38114;BMP180;23926;53.222;6.354;2023-07-13T11:17:35;101407.00;;;25.40
38114;BMP180;23926;53.222;6.354;2023-07-13T11:25:28;101416.00;;;25.60
38114;BMP180;23926;53.222;6.354;2023-07-13T11:30:39;101422.00;;;25.90
38114;BMP180;23926;53.222;6.354;2023-07-13T11:36:05;101420.00;;;26.20
38114;BMP180;23926;53.222;6.354;2023-07-13T11:38:38;101417.00;;;26.10
38114;BMP180;23926;53.222;6.354;2023-07-13T11:43:42;101429.00;;;25.60
38114;BMP180;23926;53.222;6.354;2023-07-13T11:46:26;101426.00;;;25.40
38114;BMP180;23926;53.222;6.354;2023-07-13T11:48:54;101443.00;;;25.70
38114;BMP180;23926;53.222;6.354;2023-07-13T11:51:31;101425.00;;;25.70
38114;BMP180;23926;53.222;6.354;2023-07-13T11:54:03;101438.00;;;25.60
38114;BMP180;23926;53.222;6.354;2023-07-13T11:56:31;101423.00;;;25.30
38114;BMP180;23926;53.222;6.354;2023-07-13T11:59:04;101423.00;;;25.00
38114;BMP180;23926;53.222;6.354;2023-07-13T12:01:32;101432.00;;;25.20
38114;BMP180;23926;53.222;6.354;2023-07-13T12:04:01;101427.00;;;25.30
38114;BMP180;23926;53.222;6.354;2023-07-13T12:06:32;101434.00;;;25.50
38114;BMP180;23926;53.222;6.354;2023-07-13T12:09:01;101439.00;;;25.70
38114;BMP180;23926;53.222;6.354;2023-07-13T12:11:29;101445.00;;;26.00
38114;BMP180;23926;53.222;6.354;2023-07-13T12:13:55;101441.00;;;26.10
38114;BMP180;23926;53.222;6.354;2023-07-13T12:16:32;101439.00;;;25.90
38114;BMP180;23926;53.222;6.354;2023-07-13T12:19:00;101446.00;;;26.10
38114;BMP180;23926;53.222;6.354;2023-07-13T12:21:37;101445.00;;;26.20
38114;BMP180;23926;53.222;6.354;2023-07-13T12:24:04;101452.00;;;26.40
38114;BMP180;23926;53.222;6.354;2023-07-13T12:26:31;101462.00;;;26.60
38114;BMP180;23926;53.222;6.354;2023-07-13T12:29:01;101472.00;;;26.10
38114;BMP180;23926;53.222;6.354;2023-07-13T12:31:39;101470.00;;;25.20
38114;BMP180;23926;53.222;6.354;2023-07-13T12:34:11;101482.00;;;24.70
38114;BMP180;23926;53.222;6.354;2023-07-13T12:36:41;101478.00;;;24.70
38114;BMP180;23926;53.222;6.354;2023-07-13T12:41:48;101474.00;;;25.00
38114;BMP180;23926;53.222;6.354;2023-07-13T12:44:27;101475.00;;;25.00
38114;BMP180;23926;53.222;6.354;2023-07-13T12:47:03;101485.00;;;25.00
38114;BMP180;23926;53.222;6.354;2023-07-13T12:49:31;101472.00;;;25.00
38114;BMP180;23926;53.222;6.354;2023-07-13T12:52:02;101475.00;;;25.20
38114;BMP180;23926;53.222;6.354;2023-07-13T12:54:30;101483.00;;;25.50
38114;BMP180;23926;53.222;6.354;2023-07-13T12:56:57;101478.00;;;25.30
38114;BMP180;23926;53.222;6.354;2023-07-13T12:59:25;101487.00;;;25.10
38114;BMP180;23926;53.222;6.354;2023-07-13T13:01:53;101489.00;;;24.80
38114;BMP180;23926;53.222;6.354;2023-07-13T13:04:19;101494.00;;;24.80
38114;BMP180;23926;53.222;6.354;2023-07-13T13:06:47;101499.00;;;24.70
38114;BMP180;23926;53.222;6.354;2023-07-13T13:09:14;101502.00;;;24.00
38114;BMP180;23926;53.222;6.354;2023-07-13T13:11:41;101499.00;;;23.90
38114;BMP180;23926;53.222;6.354;2023-07-13T13:14:07;101502.00;;;23.70
38114;BMP180;23926;53.222;6.354;2023-07-13T13:16:47;101499.00;;;23.80
38114;BMP180;23926;53.222;6.354;2023-07-13T13:19:17;101500.00;;;23.90
38114;BMP180;23926;53.222;6.354;2023-07-13T13:21:44;101495.00;;;24.30
38114;BMP180;23926;53.222;6.354;2023-07-13T13:24:18;101509.00;;;24.10
38114;BMP180;23926;53.222;6.354;2023-07-13T13:26:45;101510.00;;;24.20
38114;BMP180;23926;53.222;6.354;2023-07-13T13:29:18;101511.00;;;24.10
38114;BMP180;23926;53.222;6.354;2023-07-13T13:31:44;101514.00;;;24.00
38114;BMP180;23926;53.222;6.354;2023-07-13T13:34:15;101516.00;;;23.90
38114;BMP180;23926;53.222;6.354;2023-07-13T13:36:45;101520.00;;;23.90
38114;BMP180;23926;53.222;6.354;2023-07-13T13:39:35;101514.00;;;24.10
38114;BMP180;23926;53.222;6.354;2023-07-13T13:42:04;101496.00;;;24.40
38114;BMP180;23926;53.222;6.354;2023-07-13T13:44:29;101502.00;;;24.80
38114;BMP180;23926;53.222;6.354;2023-07-13T13:46:55;101507.00;;;25.10
38114;BMP180;23926;53.222;6.354;2023-07-13T13:49:27;101504.00;;;24.90
38114;BMP180;23926;53.222;6.354;2023-07-13T13:51:53;101514.00;;;25.10
38114;BMP180;23926;53.222;6.354;2023-07-13T13:54:20;101513.00;;;25.00
38114;BMP180;23926;53.222;6.354;2023-07-13T13:56:49;101520.00;;;25.30
38114;BMP180;23926;53.222;6.354;2023-07-13T13:59:15;101517.00;;;25.10
38114;BMP180;23926;53.222;6.354;2023-07-13T14:01:42;101518.00;;;25.10
38114;BMP180;23926;53.222;6.354;2023-07-13T14:04:17;101517.00;;;24.90
38114;BMP180;23926;53.222;6.354;2023-07-13T14:06:43;101518.00;;;24.80
38114;BMP180;23926;53.222;6.354;2023-07-13T14:09:12;101506.00;;;24.80
38114;BMP180;23926;53.222;6.354;2023-07-13T14:11:39;101514.00;;;25.00
38114;BMP180;23926;53.222;6.354;2023-07-13T14:14:12;101517.00;;;25.10
38114;BMP180;23926;53.222;6.354;2023-07-13T14:16:39;101512.00;;;25.30
38114;BMP180;23926;53.222;6.354;2023-07-13T14:19:12;101505.00;;;25.50
38114;BMP180;23926;53.222;6.354;2023-07-13T14:21:39;101508.00;;;25.60
38114;BMP180;23926;53.222;6.354;2023-07-13T14:24:04;101515.00;;;25.90
38114;BMP180;23926;53.222;6.354;2023-07-13T14:26:34;101519.00;;;25.80
38114;BMP180;23926;53.222;6.354;2023-07-13T14:29:01;101522.00;;;25.80
38114;BMP180;23926;53.222;6.354;2023-07-13T14:31:27;101517.00;;;25.40
38114;BMP180;23926;53.222;6.354;2023-07-13T14:33:56;101529.00;;;25.30
38114;BMP180;23926;53.222;6.354;2023-07-13T14:36:31;101530.00;;;25.30
38114;BMP180;23926;53.222;6.354;2023-07-13T14:38:57;101526.00;;;25.10
38114;BMP180;23926;53.222;6.354;2023-07-13T14:41:23;101521.00;;;24.90
38114;BMP180;23926;53.222;6.354;2023-07-13T14:43:49;101526.00;;;24.90